sensor_id;sensor_type;location;lat;lon;timestamp;P1;durP1;ratioP1;P2;durP2;ratioP2
14776;SDS011;7480;43.124;25.686;2022-08-19T00:01:37;7.90;;;5.90;;
14776;SDS011;7480;43.124;25.686;2022-08-19T00:04:06;8.68;;;6.13;;
14776;SDS011;7480;43.124;25.686;2022-08-19T00:06:33;11.45;;;6.07;;
14776;SDS011;7480;43.124;25.686;2022-08-19T00:09:00;7.38;;;6.03;;
14776;SDS011;7480;43.124;25.686;2022-08-19T00:11:27;8.88;;;6.35;;
14776;SDS011;7480;43.124;25.686;2022-08-19T00:13:55;9.55;;;5.97;;
14776;SDS011;7480;43.124;25.686;2022-08-19T00:16:23;7.38;;;5.72;;
14776;SDS011;7480;43.124;25.686;2022-08-19T00:18:52;7.25;;;6.05;;
14776;SDS011;7480;43.124;25.686;2022-08-19T00:21:18;7.75;;;6.20;;
14776;SDS011;7480;43.124;25.686;2022-08-19T00:23:45;7.85;;;5.53;;
14776;SDS011;7480;43.124;25.686;2022-08-19T00:26:12;6.53;;;5.85;;
14776;SDS011;7480;43.124;25.686;2022-08-19T00:28:38;8.82;;;7.05;;
14776;SDS011;7480;43.124;25.686;2022-08-19T00:31:05;12.05;;;5.95;;
14776;SDS011;7480;43.124;25.686;2022-08-19T00:33:32;10.98;;;7.03;;
14776;SDS011;7480;43.124;25.686;2022-08-19T00:36:00;7.72;;;6.20;;
14776;SDS011;7480;43.124;25.686;2022-08-19T00:38:26;9.85;;;6.28;;
14776;SDS011;7480;43.124;25.686;2022-08-19T00:41:03;7.10;;;6.00;;
14776;SDS011;7480;43.124;25.686;2022-08-19T00:43:30;11.63;;;6.57;;
14776;SDS011;7480;43.124;25.686;2022-08-19T00:45:57;9.30;;;5.82;;
14776;SDS011;7480;43.124;25.686;2022-08-19T00:48:23;10.25;;;6.72;;
14776;SDS011;7480;43.124;25.686;2022-08-19T00:50:50;8.48;;;6.20;;
14776;SDS011;7480;43.124;25.686;2022-08-19T00:53:20;7.57;;;6.20;;
14776;SDS011;7480;43.124;25.686;2022-08-19T00:55:47;7.28;;;6.00;;
14776;SDS011;7480;43.124;25.686;2022-08-19T00:58:17;10.50;;;6.47;;
14776;SDS011;7480;43.124;25.686;2022-08-19T01:00:45;11.98;;;7.07;;
14776;SDS011;7480;43.124;25.686;2022-08-19T01:03:14;8.65;;;6.80;;
14776;SDS011;7480;43.124;25.686;2022-08-19T01:05:44;8.07;;;6.27;;
14776;SDS011;7480;43.124;25.686;2022-08-19T01:08:11;10.77;;;6.17;;
14776;SDS011;7480;43.124;25.686;2022-08-19T01:10:55;10.07;;;6.27;;
14776;SDS011;7480;43.124;25.686;2022-08-19T01:13:23;7.05;;;6.00;;
14776;SDS011;7480;43.124;25.686;2022-08-19T01:15:53;9.13;;;7.43;;
14776;SDS011;7480;43.124;25.686;2022-08-19T01:18:21;10.37;;;6.93;;
14776;SDS011;7480;43.124;25.686;2022-08-19T01:20:47;12.17;;;6.53;;
14776;SDS011;7480;43.124;25.686;2022-08-19T01:23:14;11.82;;;6.80;;
14776;SDS011;7480;43.124;25.686;2022-08-19T01:25:48;8.53;;;5.87;;
14776;SDS011;7480;43.124;25.686;2022-08-19T01:28:20;8.77;;;7.03;;
14776;SDS011;7480;43.124;25.686;2022-08-19T01:31:06;11.50;;;7.57;;
14776;SDS011;7480;43.124;25.686;2022-08-19T01:33:33;10.83;;;6.47;;
14776;SDS011;7480;43.124;25.686;2022-08-19T01:36:13;7.67;;;6.33;;
14776;SDS011;7480;43.124;25.686;2022-08-19T01:38:41;9.43;;;6.43;;
14776;SDS011;7480;43.124;25.686;2022-08-19T01:41:10;8.60;;;6.70;;
14776;SDS011;7480;43.124;25.686;2022-08-19T01:43:37;10.03;;;6.33;;
14776;SDS011;7480;43.124;25.686;2022-08-19T01:46:24;12.37;;;6.63;;
14776;SDS011;7480;43.124;25.686;2022-08-19T01:48:50;6.77;;;6.03;;
14776;SDS011;7480;43.124;25.686;2022-08-19T01:51:17;9.60;;;6.67;;
14776;SDS011;7480;43.124;25.686;2022-08-19T01:53:46;7.13;;;6.28;;
14776;SDS011;7480;43.124;25.686;2022-08-19T01:56:13;8.00;;;6.85;;
14776;SDS011;7480;43.124;25.686;2022-08-19T01:58:41;11.03;;;6.10;;
14776;SDS011;7480;43.124;25.686;2022-08-19T02:01:09;6.63;;;5.90;;
14776;SDS011;7480;43.124;25.686;2022-08-19T02:03:36;7.07;;;6.37;;
14776;SDS011;7480;43.124;25.686;2022-08-19T02:06:02;10.00;;;6.90;;
14776;SDS011;7480;43.124;25.686;2022-08-19T02:08:29;7.50;;;6.33;;
14776;SDS011;7480;43.124;25.686;2022-08-19T02:10:56;7.57;;;6.20;;
14776;SDS011;7480;43.124;25.686;2022-08-19T02:13:23;9.67;;;6.10;;
14776;SDS011;7480;43.124;25.686;2022-08-19T02:15:51;7.77;;;6.10;;
14776;SDS011;7480;43.124;25.686;2022-08-19T02:18:18;8.17;;;6.23;;
14776;SDS011;7480;43.124;25.686;2022-08-19T02:20:45;7.63;;;6.50;;
14776;SDS011;7480;43.124;25.686;2022-08-19T02:23:15;11.77;;;7.17;;
14776;SDS011;7480;43.124;25.686;2022-08-19T02:25:42;6.57;;;5.87;;
14776;SDS011;7480;43.124;25.686;2022-08-19T02:28:10;8.07;;;6.43;;
14776;SDS011;7480;43.124;25.686;2022-08-19T02:30:43;8.20;;;6.53;;
14776;SDS011;7480;43.124;25.686;2022-08-19T02:33:10;9.80;;;6.53;;
14776;SDS011;7480;43.124;25.686;2022-08-19T02:35:36;9.50;;;6.67;;
14776;SDS011;7480;43.124;25.686;2022-08-19T02:38:03;8.83;;;6.43;;
14776;SDS011;7480;43.124;25.686;2022-08-19T02:40:52;8.90;;;6.50;;
14776;SDS011;7480;43.124;25.686;2022-08-19T02:43:19;10.17;;;7.43;;
14776;SDS011;7480;43.124;25.686;2022-08-19T02:45:49;9.97;;;7.30;;
14776;SDS011;7480;43.124;25.686;2022-08-19T02:48:16;9.93;;;7.60;;
14776;SDS011;7480;43.124;25.686;2022-08-19T02:50:47;11.57;;;6.97;;
14776;SDS011;7480;43.124;25.686;2022-08-19T02:53:18;7.50;;;6.70;;
14776;SDS011;7480;43.124;25.686;2022-08-19T02:55:45;13.00;;;7.33;;
14776;SDS011;7480;43.124;25.686;2022-08-19T02:58:13;6.67;;;5.50;;
14776;SDS011;7480;43.124;25.686;2022-08-19T03:00:43;5.53;;;4.20;;
14776;SDS011;7480;43.124;25.686;2022-08-19T03:03:10;6.40;;;4.37;;
14776;SDS011;7480;43.124;25.686;2022-08-19T03:05:37;6.30;;;4.83;;
14776;SDS011;7480;43.124;25.686;2022-08-19T03:08:22;6.10;;;3.97;;
14776;SDS011;7480;43.124;25.686;2022-08-19T03:10:48;6.50;;;4.10;;
14776;SDS011;7480;43.124;25.686;2022-08-19T03:13:16;7.33;;;4.50;;
14776;SDS011;7480;43.124;25.686;2022-08-19T03:15:43;5.87;;;4.23;;
14776;SDS011;7480;43.124;25.686;2022-08-19T03:18:10;5.33;;;4.10;;
14776;SDS011;7480;43.124;25.686;2022-08-19T03:20:44;6.17;;;3.80;;
14776;SDS011;7480;43.124;25.686;2022-08-19T03:23:11;5.77;;;4.20;;
14776;SDS011;7480;43.124;25.686;2022-08-19T03:25:42;5.17;;;4.17;;
14776;SDS011;7480;43.124;25.686;2022-08-19T03:28:10;5.10;;;4.07;;
14776;SDS011;7480;43.124;25.686;2022-08-19T03:30:38;4.83;;;3.23;;
14776;SDS011;7480;43.124;25.686;2022-08-19T03:33:09;5.57;;;3.23;;
14776;SDS011;7480;43.124;25.686;2022-08-19T03:35:43;5.00;;;4.23;;
14776;SDS011;7480;43.124;25.686;2022-08-19T03:38:10;5.60;;;3.57;;
14776;SDS011;7480;43.124;25.686;2022-08-19T03:40:37;6.87;;;4.60;;
14776;SDS011;7480;43.124;25.686;2022-08-19T03:43:03;4.00;;;3.37;;
14776;SDS011;7480;43.124;25.686;2022-08-19T03:45:30;4.83;;;3.73;;
14776;SDS011;7480;43.124;25.686;2022-08-19T03:47:56;5.77;;;3.73;;
14776;SDS011;7480;43.124;25.686;2022-08-19T03:50:23;5.80;;;3.97;;
14776;SDS011;7480;43.124;25.686;2022-08-19T03:52:50;4.53;;;3.43;;
14776;SDS011;7480;43.124;25.686;2022-08-19T03:55:18;6.17;;;3.77;;
14776;SDS011;7480;43.124;25.686;2022-08-19T03:57:45;5.80;;;3.80;;
14776;SDS011;7480;43.124;25.686;2022-08-19T04:00:12;4.13;;;3.73;;
14776;SDS011;7480;43.124;25.686;2022-08-19T04:02:40;5.17;;;3.60;;
14776;SDS011;7480;43.124;25.686;2022-08-19T04:05:06;4.97;;;4.17;;
14776;SDS011;7480;43.124;25.686;2022-08-19T04:07:34;5.80;;;4.17;;
14776;SDS011;7480;43.124;25.686;2022-08-19T04:10:00;4.45;;;3.90;;
14776;SDS011;7480;43.124;25.686;2022-08-19T04:12:27;4.78;;;4.30;;
14776;SDS011;7480;43.124;25.686;2022-08-19T04:14:54;6.85;;;4.60;;
14776;SDS011;7480;43.124;25.686;2022-08-19T04:17:20;8.18;;;4.00;;
14776;SDS011;7480;43.124;25.686;2022-08-19T04:19:48;3.97;;;3.58;;
14776;SDS011;7480;43.124;25.686;2022-08-19T04:22:14;5.07;;;3.97;;
14776;SDS011;7480;43.124;25.686;2022-08-19T04:24:41;6.63;;;4.50;;
14776;SDS011;7480;43.124;25.686;2022-08-19T04:27:07;6.28;;;3.95;;
14776;SDS011;7480;43.124;25.686;2022-08-19T04:29:34;5.25;;;3.88;;
14776;SDS011;7480;43.124;25.686;2022-08-19T04:32:01;5.00;;;4.30;;
14776;SDS011;7480;43.124;25.686;2022-08-19T04:34:35;4.10;;;3.75;;
14776;SDS011;7480;43.124;25.686;2022-08-19T04:37:21;3.83;;;3.38;;
14776;SDS011;7480;43.124;25.686;2022-08-19T04:39:47;5.70;;;3.58;;
14776;SDS011;7480;43.124;25.686;2022-08-19T04:42:33;5.03;;;4.07;;
14776;SDS011;7480;43.124;25.686;2022-08-19T04:45:06;4.30;;;3.78;;
14776;SDS011;7480;43.124;25.686;2022-08-19T04:47:34;6.15;;;4.15;;
14776;SDS011;7480;43.124;25.686;2022-08-19T04:50:21;4.72;;;4.25;;
14776;SDS011;7480;43.124;25.686;2022-08-19T04:52:50;4.80;;;4.00;;
14776;SDS011;7480;43.124;25.686;2022-08-19T04:55:17;5.40;;;4.20;;
14776;SDS011;7480;43.124;25.686;2022-08-19T04:57:44;5.13;;;3.97;;
14776;SDS011;7480;43.124;25.686;2022-08-19T05:00:10;4.30;;;3.90;;
14776;SDS011;7480;43.124;25.686;2022-08-19T05:02:37;6.07;;;4.10;;
14776;SDS011;7480;43.124;25.686;2022-08-19T05:05:04;4.60;;;3.40;;
14776;SDS011;7480;43.124;25.686;2022-08-19T05:07:32;4.88;;;3.60;;
14776;SDS011;7480;43.124;25.686;2022-08-19T05:10:12;4.43;;;3.70;;
14776;SDS011;7480;43.124;25.686;2022-08-19T05:12:38;4.18;;;3.78;;
14776;SDS011;7480;43.124;25.686;2022-08-19T05:15:05;4.13;;;3.72;;
14776;SDS011;7480;43.124;25.686;2022-08-19T05:17:34;5.88;;;4.30;;
14776;SDS011;7480;43.124;25.686;2022-08-19T05:20:05;7.15;;;3.88;;
14776;SDS011;7480;43.124;25.686;2022-08-19T05:22:50;4.28;;;3.20;;
14776;SDS011;7480;43.124;25.686;2022-08-19T05:25:17;4.32;;;3.72;;
14776;SDS011;7480;43.124;25.686;2022-08-19T05:27:45;4.00;;;3.17;;
14776;SDS011;7480;43.124;25.686;2022-08-19T05:30:12;5.20;;;3.20;;
14776;SDS011;7480;43.124;25.686;2022-08-19T05:32:46;4.61;;;4.04;;
14776;SDS011;7480;43.124;25.686;2022-08-19T05:35:13;5.25;;;3.85;;
14776;SDS011;7480;43.124;25.686;2022-08-19T05:37:39;6.15;;;4.32;;
14776;SDS011;7480;43.124;25.686;2022-08-19T05:40:07;5.03;;;4.07;;
14776;SDS011;7480;43.124;25.686;2022-08-19T05:42:42;5.86;;;3.94;;
14776;SDS011;7480;43.124;25.686;2022-08-19T05:45:19;6.13;;;3.75;;
14776;SDS011;7480;43.124;25.686;2022-08-19T05:47:47;5.75;;;4.38;;
14776;SDS011;7480;43.124;25.686;2022-08-19T05:50:14;4.55;;;3.83;;
14776;SDS011;7480;43.124;25.686;2022-08-19T05:52:40;3.70;;;3.40;;
14776;SDS011;7480;43.124;25.686;2022-08-19T05:55:19;4.97;;;4.40;;
14776;SDS011;7480;43.124;25.686;2022-08-19T05:57:46;5.25;;;3.95;;
14776;SDS011;7480;43.124;25.686;2022-08-19T06:00:13;5.72;;;4.55;;
14776;SDS011;7480;43.124;25.686;2022-08-19T06:02:40;5.72;;;4.43;;
14776;SDS011;7480;43.124;25.686;2022-08-19T06:05:07;4.63;;;4.07;;
14776;SDS011;7480;43.124;25.686;2022-08-19T06:07:36;5.25;;;4.63;;
14776;SDS011;7480;43.124;25.686;2022-08-19T06:10:04;5.85;;;4.38;;
14776;SDS011;7480;43.124;25.686;2022-08-19T06:12:31;4.97;;;3.95;;
14776;SDS011;7480;43.124;25.686;2022-08-19T06:15:02;5.00;;;4.03;;
14776;SDS011;7480;43.124;25.686;2022-08-19T06:17:29;5.60;;;4.13;;
14776;SDS011;7480;43.124;25.686;2022-08-19T06:19:57;4.47;;;3.92;;
14776;SDS011;7480;43.124;25.686;2022-08-19T06:22:24;3.97;;;3.63;;
14776;SDS011;7480;43.124;25.686;2022-08-19T06:24:51;3.65;;;3.28;;
14776;SDS011;7480;43.124;25.686;2022-08-19T06:27:20;5.65;;;3.88;;
14776;SDS011;7480;43.124;25.686;2022-08-19T06:29:46;5.05;;;4.05;;
14776;SDS011;7480;43.124;25.686;2022-08-19T06:32:14;5.18;;;4.07;;
14776;SDS011;7480;43.124;25.686;2022-08-19T06:34:41;3.85;;;3.28;;
14776;SDS011;7480;43.124;25.686;2022-08-19T06:37:08;4.03;;;3.63;;
14776;SDS011;7480;43.124;25.686;2022-08-19T06:39:36;3.75;;;3.38;;
14776;SDS011;7480;43.124;25.686;2022-08-19T06:42:05;4.50;;;3.60;;
14776;SDS011;7480;43.124;25.686;2022-08-19T06:44:38;3.92;;;3.20;;
14776;SDS011;7480;43.124;25.686;2022-08-19T06:47:09;3.45;;;2.67;;
14776;SDS011;7480;43.124;25.686;2022-08-19T06:49:48;2.88;;;2.58;;
14776;SDS011;7480;43.124;25.686;2022-08-19T06:52:15;3.13;;;2.47;;
14776;SDS011;7480;43.124;25.686;2022-08-19T06:54:42;4.72;;;3.72;;
14776;SDS011;7480;43.124;25.686;2022-08-19T06:57:22;4.22;;;3.17;;
14776;SDS011;7480;43.124;25.686;2022-08-19T06:59:49;4.07;;;3.20;;
14776;SDS011;7480;43.124;25.686;2022-08-19T07:02:15;3.00;;;2.80;;
14776;SDS011;7480;43.124;25.686;2022-08-19T07:04:46;2.50;;;2.30;;
14776;SDS011;7480;43.124;25.686;2022-08-19T07:07:18;5.18;;;2.90;;
14776;SDS011;7480;43.124;25.686;2022-08-19T07:09:47;2.65;;;2.40;;
14776;SDS011;7480;43.124;25.686;2022-08-19T07:12:28;2.60;;;2.40;;
14776;SDS011;7480;43.124;25.686;2022-08-19T07:14:56;3.30;;;2.65;;
14776;SDS011;7480;43.124;25.686;2022-08-19T07:17:23;5.55;;;3.35;;
14776;SDS011;7480;43.124;25.686;2022-08-19T07:19:50;2.47;;;2.28;;
14776;SDS011;7480;43.124;25.686;2022-08-19T07:22:19;4.40;;;3.55;;
14776;SDS011;7480;43.124;25.686;2022-08-19T07:24:49;3.38;;;3.08;;
14776;SDS011;7480;43.124;25.686;2022-08-19T07:27:16;3.13;;;2.60;;
14776;SDS011;7480;43.124;25.686;2022-08-19T07:29:49;3.88;;;2.67;;
14776;SDS011;7480;43.124;25.686;2022-08-19T07:32:22;2.88;;;2.50;;
14776;SDS011;7480;43.124;25.686;2022-08-19T07:34:50;3.72;;;2.30;;
14776;SDS011;7480;43.124;25.686;2022-08-19T07:37:17;2.63;;;2.13;;
14776;SDS011;7480;43.124;25.686;2022-08-19T07:39:43;2.90;;;2.60;;
14776;SDS011;7480;43.124;25.686;2022-08-19T07:42:10;2.55;;;2.35;;
14776;SDS011;7480;43.124;25.686;2022-08-19T07:44:38;4.55;;;3.08;;
14776;SDS011;7480;43.124;25.686;2022-08-19T07:47:10;3.03;;;2.80;;
14776;SDS011;7480;43.124;25.686;2022-08-19T07:49:56;2.08;;;1.73;;
14776;SDS011;7480;43.124;25.686;2022-08-19T07:52:23;3.72;;;3.10;;
14776;SDS011;7480;43.124;25.686;2022-08-19T07:54:49;3.03;;;2.47;;
14776;SDS011;7480;43.124;25.686;2022-08-19T07:57:16;3.40;;;3.10;;
14776;SDS011;7480;43.124;25.686;2022-08-19T07:59:43;2.65;;;2.40;;
14776;SDS011;7480;43.124;25.686;2022-08-19T08:02:09;3.78;;;2.90;;
14776;SDS011;7480;43.124;25.686;2022-08-19T08:04:36;3.55;;;2.47;;
14776;SDS011;7480;43.124;25.686;2022-08-19T08:07:21;3.22;;;2.90;;
14776;SDS011;7480;43.124;25.686;2022-08-19T08:10:11;2.50;;;2.28;;
14776;SDS011;7480;43.124;25.686;2022-08-19T08:12:46;2.70;;;2.38;;
14776;SDS011;7480;43.124;25.686;2022-08-19T08:15:33;2.05;;;1.85;;
14776;SDS011;7480;43.124;25.686;2022-08-19T08:18:06;3.03;;;2.63;;
14776;SDS011;7480;43.124;25.686;2022-08-19T08:20:34;4.88;;;3.17;;
14776;SDS011;7480;43.124;25.686;2022-08-19T08:23:01;2.63;;;2.42;;
14776;SDS011;7480;43.124;25.686;2022-08-19T08:25:46;3.40;;;2.85;;
14776;SDS011;7480;43.124;25.686;2022-08-19T08:28:15;3.60;;;2.72;;
14776;SDS011;7480;43.124;25.686;2022-08-19T08:30:43;2.45;;;2.20;;
14776;SDS011;7480;43.124;25.686;2022-08-19T08:33:12;3.20;;;2.47;;
14776;SDS011;7480;43.124;25.686;2022-08-19T08:35:44;2.53;;;2.20;;
14776;SDS011;7480;43.124;25.686;2022-08-19T08:38:12;2.33;;;2.03;;
14776;SDS011;7480;43.124;25.686;2022-08-19T08:43:07;3.92;;;3.48;;
14776;SDS011;7480;43.124;25.686;2022-08-19T08:45:38;2.33;;;2.08;;
14776;SDS011;7480;43.124;25.686;2022-08-19T08:48:13;2.58;;;2.20;;
14776;SDS011;7480;43.124;25.686;2022-08-19T08:50:49;2.75;;;2.20;;
14776;SDS011;7480;43.124;25.686;2022-08-19T08:53:19;2.38;;;2.17;;
14776;SDS011;7480;43.124;25.686;2022-08-19T08:55:56;3.05;;;2.47;;
14776;SDS011;7480;43.124;25.686;2022-08-19T08:58:28;2.70;;;2.20;;
14776;SDS011;7480;43.124;25.686;2022-08-19T09:00:56;2.83;;;2.58;;
14776;SDS011;7480;43.124;25.686;2022-08-19T09:03:25;2.97;;;2.50;;
14776;SDS011;7480;43.124;25.686;2022-08-19T09:10:59;2.03;;;1.90;;
14776;SDS011;7480;43.124;25.686;2022-08-19T09:16:17;3.15;;;2.58;;
14776;SDS011;7480;43.124;25.686;2022-08-19T09:18:54;2.55;;;2.35;;
14776;SDS011;7480;43.124;25.686;2022-08-19T09:21:22;2.97;;;2.47;;
14776;SDS011;7480;43.124;25.686;2022-08-19T09:23:55;4.22;;;2.42;;
14776;SDS011;7480;43.124;25.686;2022-08-19T09:26:25;2.70;;;2.47;;
14776;SDS011;7480;43.124;25.686;2022-08-19T09:29:12;2.55;;;2.30;;
14776;SDS011;7480;43.124;25.686;2022-08-19T09:31:39;3.70;;;2.90;;
14776;SDS011;7480;43.124;25.686;2022-08-19T09:34:05;3.42;;;2.50;;
14776;SDS011;7480;43.124;25.686;2022-08-19T09:36:32;3.42;;;2.60;;
14776;SDS011;7480;43.124;25.686;2022-08-19T09:39:05;3.33;;;2.50;;
14776;SDS011;7480;43.124;25.686;2022-08-19T09:41:41;2.72;;;2.22;;
14776;SDS011;7480;43.124;25.686;2022-08-19T09:44:12;2.08;;;1.88;;
14776;SDS011;7480;43.124;25.686;2022-08-19T09:46:39;2.95;;;2.45;;
14776;SDS011;7480;43.124;25.686;2022-08-19T09:49:05;2.78;;;2.55;;
14776;SDS011;7480;43.124;25.686;2022-08-19T09:51:32;2.83;;;2.33;;
14776;SDS011;7480;43.124;25.686;2022-08-19T09:54:01;3.25;;;2.60;;
14776;SDS011;7480;43.124;25.686;2022-08-19T09:56:30;3.42;;;2.50;;
14776;SDS011;7480;43.124;25.686;2022-08-19T09:59:00;3.60;;;2.88;;
14776;SDS011;7480;43.124;25.686;2022-08-19T10:01:28;3.00;;;2.30;;
14776;SDS011;7480;43.124;25.686;2022-08-19T10:03:55;2.63;;;2.10;;
14776;SDS011;7480;43.124;25.686;2022-08-19T10:06:23;3.25;;;2.58;;
14776;SDS011;7480;43.124;25.686;2022-08-19T10:09:10;2.63;;;1.90;;
14776;SDS011;7480;43.124;25.686;2022-08-19T10:11:39;3.88;;;2.30;;
14776;SDS011;7480;43.124;25.686;2022-08-19T10:14:16;2.65;;;2.10;;
14776;SDS011;7480;43.124;25.686;2022-08-19T10:16:43;3.00;;;2.30;;
14776;SDS011;7480;43.124;25.686;2022-08-19T10:19:09;2.83;;;2.50;;
14776;SDS011;7480;43.124;25.686;2022-08-19T10:21:36;4.18;;;2.70;;
14776;SDS011;7480;43.124;25.686;2022-08-19T10:24:05;2.55;;;1.77;;
14776;SDS011;7480;43.124;25.686;2022-08-19T10:26:35;2.70;;;2.47;;
14776;SDS011;7480;43.124;25.686;2022-08-19T10:29:04;3.25;;;2.30;;
14776;SDS011;7480;43.124;25.686;2022-08-19T10:31:34;2.70;;;2.38;;
14776;SDS011;7480;43.124;25.686;2022-08-19T10:34:21;3.10;;;2.63;;
14776;SDS011;7480;43.124;25.686;2022-08-19T10:36:53;3.30;;;2.47;;
14776;SDS011;7480;43.124;25.686;2022-08-19T10:39:26;3.35;;;2.42;;
14776;SDS011;7480;43.124;25.686;2022-08-19T10:41:56;2.30;;;2.00;;
14776;SDS011;7480;43.124;25.686;2022-08-19T10:44:23;2.63;;;2.42;;
14776;SDS011;7480;43.124;25.686;2022-08-19T10:46:57;2.80;;;2.40;;
14776;SDS011;7480;43.124;25.686;2022-08-19T10:49:25;3.35;;;2.58;;
14776;SDS011;7480;43.124;25.686;2022-08-19T10:51:53;3.53;;;2.58;;
14776;SDS011;7480;43.124;25.686;2022-08-19T10:54:45;2.88;;;2.22;;
14776;SDS011;7480;43.124;25.686;2022-08-19T10:57:33;5.97;;;2.50;;
14776;SDS011;7480;43.124;25.686;2022-08-19T11:00:20;2.70;;;2.30;;
14776;SDS011;7480;43.124;25.686;2022-08-19T11:02:47;2.60;;;2.17;;
14776;SDS011;7480;43.124;25.686;2022-08-19T11:05:14;2.10;;;1.90;;
14776;SDS011;7480;43.124;25.686;2022-08-19T11:07:41;2.58;;;2.38;;
14776;SDS011;7480;43.124;25.686;2022-08-19T11:10:09;3.75;;;2.20;;
14776;SDS011;7480;43.124;25.686;2022-08-19T11:12:38;2.50;;;2.30;;
14776;SDS011;7480;43.124;25.686;2022-08-19T11:15:06;3.13;;;2.55;;
14776;SDS011;7480;43.124;25.686;2022-08-19T11:17:34;3.03;;;2.03;;
14776;SDS011;7480;43.124;25.686;2022-08-19T11:20:02;3.13;;;2.50;;
14776;SDS011;7480;43.124;25.686;2022-08-19T11:22:31;2.83;;;2.20;;
14776;SDS011;7480;43.124;25.686;2022-08-19T11:25:07;2.30;;;2.10;;
14776;SDS011;7480;43.124;25.686;2022-08-19T11:27:37;2.00;;;1.80;;
14776;SDS011;7480;43.124;25.686;2022-08-19T11:30:03;5.15;;;2.65;;
14776;SDS011;7480;43.124;25.686;2022-08-19T11:32:33;2.63;;;2.20;;
14776;SDS011;7480;43.124;25.686;2022-08-19T11:35:00;3.00;;;2.55;;
14776;SDS011;7480;43.124;25.686;2022-08-19T11:37:27;2.70;;;2.17;;
14776;SDS011;7480;43.124;25.686;2022-08-19T11:39:53;2.45;;;2.25;;
14776;SDS011;7480;43.124;25.686;2022-08-19T11:42:20;2.88;;;2.17;;
14776;SDS011;7480;43.124;25.686;2022-08-19T11:45:05;2.70;;;2.42;;
14776;SDS011;7480;43.124;25.686;2022-08-19T11:47:32;3.03;;;2.58;;
14776;SDS011;7480;43.124;25.686;2022-08-19T11:49:59;3.83;;;2.13;;
14776;SDS011;7480;43.124;25.686;2022-08-19T11:52:25;2.03;;;1.85;;
14776;SDS011;7480;43.124;25.686;2022-08-19T11:54:53;2.60;;;2.13;;
14776;SDS011;7480;43.124;25.686;2022-08-19T11:57:19;3.05;;;2.05;;
14776;SDS011;7480;43.124;25.686;2022-08-19T11:59:52;3.45;;;2.58;;
14776;SDS011;7480;43.124;25.686;2022-08-19T12:02:18;3.38;;;2.33;;
14776;SDS011;7480;43.124;25.686;2022-08-19T12:04:45;3.07;;;2.70;;
14776;SDS011;7480;43.124;25.686;2022-08-19T12:07:11;2.60;;;2.40;;
14776;SDS011;7480;43.124;25.686;2022-08-19T12:09:38;2.65;;;2.13;;
14776;SDS011;7480;43.124;25.686;2022-08-19T12:12:08;2.17;;;1.83;;
14776;SDS011;7480;43.124;25.686;2022-08-19T12:14:35;2.50;;;2.25;;
14776;SDS011;7480;43.124;25.686;2022-08-19T12:17:01;2.28;;;2.08;;
14776;SDS011;7480;43.124;25.686;2022-08-19T12:19:30;2.47;;;2.28;;
14776;SDS011;7480;43.124;25.686;2022-08-19T12:22:00;2.40;;;2.05;;
14776;SDS011;7480;43.124;25.686;2022-08-19T12:24:30;2.47;;;2.15;;
14776;SDS011;7480;43.124;25.686;2022-08-19T12:26:58;2.22;;;2.00;;
14776;SDS011;7480;43.124;25.686;2022-08-19T12:29:28;2.47;;;2.15;;
14776;SDS011;7480;43.124;25.686;2022-08-19T12:31:56;3.38;;;2.47;;
14776;SDS011;7480;43.124;25.686;2022-08-19T12:34:29;2.97;;;2.50;;
14776;SDS011;7480;43.124;25.686;2022-08-19T12:36:57;2.38;;;2.00;;
14776;SDS011;7480;43.124;25.686;2022-08-19T12:39:24;3.15;;;2.50;;
14776;SDS011;7480;43.124;25.686;2022-08-19T12:41:50;2.30;;;2.10;;
14776;SDS011;7480;43.124;25.686;2022-08-19T12:44:20;2.25;;;2.05;;
14776;SDS011;7480;43.124;25.686;2022-08-19T12:46:57;2.58;;;1.70;;
14776;SDS011;7480;43.124;25.686;2022-08-19T12:49:24;1.77;;;1.63;;
14776;SDS011;7480;43.124;25.686;2022-08-19T12:52:11;2.47;;;2.10;;
14776;SDS011;7480;43.124;25.686;2022-08-19T12:54:41;6.47;;;2.67;;
14776;SDS011;7480;43.124;25.686;2022-08-19T12:57:09;2.13;;;1.92;;
14776;SDS011;7480;43.124;25.686;2022-08-19T12:59:37;2.47;;;2.28;;
14776;SDS011;7480;43.124;25.686;2022-08-19T13:02:04;2.40;;;2.20;;
14776;SDS011;7480;43.124;25.686;2022-08-19T13:04:32;2.65;;;2.35;;
14776;SDS011;7480;43.124;25.686;2022-08-19T13:07:01;2.92;;;2.30;;
14776;SDS011;7480;43.124;25.686;2022-08-19T13:09:28;2.70;;;2.50;;
14776;SDS011;7480;43.124;25.686;2022-08-19T13:11:55;1.70;;;1.60;;
14776;SDS011;7480;43.124;25.686;2022-08-19T13:14:22;3.05;;;2.20;;
14776;SDS011;7480;43.124;25.686;2022-08-19T13:16:52;2.63;;;2.05;;
14776;SDS011;7480;43.124;25.686;2022-08-19T13:19:18;2.40;;;2.20;;
14776;SDS011;7480;43.124;25.686;2022-08-19T13:21:49;2.35;;;2.15;;
14776;SDS011;7480;43.124;25.686;2022-08-19T13:24:15;2.40;;;2.13;;
14776;SDS011;7480;43.124;25.686;2022-08-19T13:26:42;2.30;;;2.10;;
14776;SDS011;7480;43.124;25.686;2022-08-19T13:29:09;2.55;;;2.10;;
14776;SDS011;7480;43.124;25.686;2022-08-19T13:31:54;2.95;;;2.15;;
14776;SDS011;7480;43.124;25.686;2022-08-19T13:34:43;3.85;;;2.35;;
14776;SDS011;7480;43.124;25.686;2022-08-19T13:37:12;2.53;;;2.00;;
14776;SDS011;7480;43.124;25.686;2022-08-19T13:39:39;1.88;;;1.60;;
14776;SDS011;7480;43.124;25.686;2022-08-19T13:42:06;2.40;;;2.20;;
14776;SDS011;7480;43.124;25.686;2022-08-19T13:44:33;2.50;;;2.30;;
14776;SDS011;7480;43.124;25.686;2022-08-19T13:47:00;2.20;;;2.08;;
14776;SDS011;7480;43.124;25.686;2022-08-19T13:49:34;2.97;;;2.17;;
14776;SDS011;7480;43.124;25.686;2022-08-19T13:52:03;2.10;;;1.92;;
14776;SDS011;7480;43.124;25.686;2022-08-19T13:54:29;2.30;;;1.83;;
14776;SDS011;7480;43.124;25.686;2022-08-19T13:56:56;2.50;;;1.92;;
14776;SDS011;7480;43.124;25.686;2022-08-19T13:59:22;1.90;;;1.80;;
14776;SDS011;7480;43.124;25.686;2022-08-19T14:01:49;2.10;;;2.00;;
14776;SDS011;7480;43.124;25.686;2022-08-19T14:04:16;2.30;;;2.10;;
14776;SDS011;7480;43.124;25.686;2022-08-19T14:06:42;2.10;;;1.90;;
14776;SDS011;7480;43.124;25.686;2022-08-19T14:09:09;2.90;;;2.15;;
14776;SDS011;7480;43.124;25.686;2022-08-19T14:11:35;1.98;;;1.77;;
14776;SDS011;7480;43.124;25.686;2022-08-19T14:14:02;2.70;;;2.50;;
14776;SDS011;7480;43.124;25.686;2022-08-19T14:16:28;2.53;;;1.95;;
14776;SDS011;7480;43.124;25.686;2022-08-19T14:18:56;3.35;;;2.45;;
14776;SDS011;7480;43.124;25.686;2022-08-19T14:21:23;3.13;;;2.28;;
14776;SDS011;7480;43.124;25.686;2022-08-19T14:23:51;2.17;;;2.00;;
14776;SDS011;7480;43.124;25.686;2022-08-19T14:26:18;2.03;;;1.83;;
14776;SDS011;7480;43.124;25.686;2022-08-19T14:28:46;2.15;;;1.95;;
14776;SDS011;7480;43.124;25.686;2022-08-19T14:31:13;3.20;;;2.45;;
14776;SDS011;7480;43.124;25.686;2022-08-19T14:33:42;2.17;;;1.92;;
14776;SDS011;7480;43.124;25.686;2022-08-19T14:36:09;2.28;;;2.08;;
14776;SDS011;7480;43.124;25.686;2022-08-19T14:38:35;2.60;;;2.03;;
14776;SDS011;7480;43.124;25.686;2022-08-19T14:41:09;2.78;;;2.22;;
14776;SDS011;7480;43.124;25.686;2022-08-19T14:43:36;2.67;;;2.25;;
14776;SDS011;7480;43.124;25.686;2022-08-19T14:46:03;2.20;;;1.98;;
14776;SDS011;7480;43.124;25.686;2022-08-19T14:48:29;2.60;;;2.13;;
14776;SDS011;7480;43.124;25.686;2022-08-19T14:50:56;1.90;;;1.77;;
14776;SDS011;7480;43.124;25.686;2022-08-19T14:53:22;2.25;;;2.08;;
14776;SDS011;7480;43.124;25.686;2022-08-19T14:55:49;1.90;;;1.70;;
14776;SDS011;7480;43.124;25.686;2022-08-19T14:58:15;2.42;;;2.00;;
14776;SDS011;7480;43.124;25.686;2022-08-19T15:00:56;2.22;;;1.83;;
14776;SDS011;7480;43.124;25.686;2022-08-19T15:03:22;2.13;;;1.92;;
14776;SDS011;7480;43.124;25.686;2022-08-19T15:05:49;2.85;;;2.22;;
14776;SDS011;7480;43.124;25.686;2022-08-19T15:08:15;2.55;;;2.17;;
14776;SDS011;7480;43.124;25.686;2022-08-19T15:10:42;2.45;;;2.25;;
14776;SDS011;7480;43.124;25.686;2022-08-19T15:13:08;2.88;;;2.20;;